createdAt,value
2017-05-21T00:00:14.300Z,1042.79
2017-05-21T00:01:14.290Z,1042.78
2017-05-21T00:02:14.287Z,1042.76
2017-05-21T00:03:14.277Z,1042.81
2017-05-21T00:04:14.274Z,1042.81
2017-05-21T00:05:14.263Z,1042.8
2017-05-21T00:06:14.260Z,1042.79
2017-05-21T00:07:14.251Z,1042.78
2017-05-21T00:08:14.244Z,1042.8
2017-05-21T00:09:14.237Z,1042.84
2017-05-21T00:10:14.235Z,1042.82
2017-05-21T00:11:14.225Z,1042.83
2017-05-21T00:12:14.218Z,1042.83
2017-05-21T00:13:14.215Z,1042.83
2017-05-21T00:14:14.210Z,1042.83
2017-05-21T00:15:14.202Z,1042.81
2017-05-21T00:16:14.195Z,1042.84
2017-05-21T00:17:14.188Z,1042.81
2017-05-21T00:18:14.182Z,1042.82
2017-05-21T00:19:14.173Z,1042.85
2017-05-21T00:20:14.167Z,1042.85
2017-05-21T00:21:14.159Z,1042.86
2017-05-21T00:22:14.151Z,1042.86
2017-05-21T00:23:14.144Z,1042.82
2017-05-21T00:24:14.137Z,1042.8
2017-05-21T00:25:14.133Z,1042.78
2017-05-21T00:26:14.125Z,1042.77
2017-05-21T00:27:14.117Z,1042.78
2017-05-21T00:28:14.113Z,1042.8
2017-05-21T00:29:14.106Z,1042.78
2017-05-21T00:30:14.096Z,1042.79
2017-05-21T00:31:14.094Z,1042.78
2017-05-21T00:32:14.087Z,1042.8
2017-05-21T00:33:14.077Z,1042.79
2017-05-21T00:34:14.070Z,1042.77
2017-05-21T00:35:14.067Z,1042.79
2017-05-21T00:36:14.057Z,1042.78
2017-05-21T00:37:14.053Z,1042.78
2017-05-21T00:38:14.043Z,1042.79
2017-05-21T00:39:14.039Z,1042.8
2017-05-21T00:40:14.030Z,1042.77
2017-05-21T00:41:14.026Z,1042.82
2017-05-21T00:42:14.016Z,1042.79
2017-05-21T00:43:14.009Z,1042.79
2017-05-21T00:44:14.007Z,1042.8
2017-05-21T00:45:13.998Z,1042.84
2017-05-21T00:46:13.992Z,1042.81
2017-05-21T00:47:13.986Z,1042.85
2017-05-21T00:48:13.980Z,1042.84
2017-05-21T00:49:13.973Z,1042.85
2017-05-21T00:50:13.966Z,1042.83
2017-05-21T00:51:13.956Z,1042.82
2017-05-21T00:52:13.952Z,1042.81
2017-05-21T00:53:13.945Z,1042.81
2017-05-21T00:54:13.936Z,1042.81
2017-05-21T00:55:13.931Z,1042.81
2017-05-21T00:56:13.925Z,1042.81
2017-05-21T00:57:13.914Z,1042.84
2017-05-21T00:58:13.911Z,1042.83
2017-05-21T00:59:13.901Z,1042.84
2017-05-21T01:00:13.894Z,1042.81
2017-05-21T01:01:13.890Z,1042.82
2017-05-21T01:02:13.884Z,1042.85
2017-05-21T01:03:13.873Z,1042.84
2017-05-21T01:04:13.869Z,1042.81
2017-05-21T01:05:13.862Z,1042.81
2017-05-21T01:06:13.858Z,1042.82
2017-05-21T01:07:13.849Z,1042.84
2017-05-21T01:08:13.843Z,1042.84
2017-05-21T01:09:13.836Z,1042.87
2017-05-21T01:10:13.829Z,1042.86
2017-05-21T01:11:13.822Z,1042.85
2017-05-21T01:12:13.814Z,1042.85
2017-05-21T01:13:13.805Z,1042.93
2017-05-21T01:14:13.801Z,1042.9
2017-05-21T01:15:13.795Z,1042.97
2017-05-21T01:16:13.786Z,1042.93
2017-05-21T01:17:13.778Z,1042.91
2017-05-21T01:18:13.774Z,1042.95
2017-05-21T01:19:13.765Z,1042.95
2017-05-21T01:20:13.758Z,1042.97
2017-05-21T01:21:13.752Z,1042.98
2017-05-21T01:22:13.744Z,1043.01
2017-05-21T01:23:13.741Z,1042.99
2017-05-21T01:24:13.734Z,1042.99
2017-05-21T01:25:13.723Z,1042.99
2017-05-21T01:26:13.717Z,1043.04
2017-05-21T01:27:13.710Z,1043.05
2017-05-21T01:28:13.706Z,1043.1
2017-05-21T01:29:13.698Z,1043.1
2017-05-21T01:30:13.689Z,1043.15
2017-05-21T01:31:13.684Z,1043.18
2017-05-21T01:32:13.679Z,1043.21
2017-05-21T01:33:13.668Z,1043.19
2017-05-21T01:34:13.663Z,1043.21
2017-05-21T01:35:13.658Z,1043.19
2017-05-21T01:36:13.647Z,1043.2
2017-05-21T01:37:13.641Z,1043.2
2017-05-21T01:38:13.637Z,1043.25
2017-05-21T01:39:13.630Z,1043.26
2017-05-21T01:40:13.619Z,1043.29
2017-05-21T01:41:13.613Z,1043.27
2017-05-21T01:42:13.606Z,1043.32
2017-05-21T01:43:13.599Z,1043.33
2017-05-21T01:44:13.596Z,1043.33
2017-05-21T01:45:13.586Z,1043.35
2017-05-21T01:46:13.582Z,1043.31
2017-05-21T01:47:13.572Z,1043.38
2017-05-21T01:48:13.565Z,1043.33
2017-05-21T01:49:13.558Z,1043.32
2017-05-21T01:50:13.551Z,1043.34
2017-05-21T01:51:13.548Z,1043.37
2017-05-21T01:52:13.540Z,1043.39
2017-05-21T01:53:13.533Z,1043.46
2017-05-21T01:54:13.521Z,1043.44
2017-05-21T01:55:13.515Z,1043.46
2017-05-21T01:56:13.511Z,1043.42
2017-05-21T01:57:13.501Z,1043.43
2017-05-21T01:58:13.497Z,1043.48
2017-05-21T01:59:13.489Z,1043.48
2017-05-21T02:00:13.479Z,1043.41
2017-05-21T02:01:13.524Z,1043.4
2017-05-21T02:02:13.468Z,1043.41
2017-05-21T02:03:13.461Z,1043.41
2017-05-21T02:04:13.454Z,1043.39
2017-05-21T02:05:13.446Z,1043.43
2017-05-21T02:06:13.440Z,1043.44
2017-05-21T02:07:13.430Z,1043.45
2017-05-21T02:08:13.422Z,1043.47
2017-05-21T02:09:13.418Z,1043.43
2017-05-21T02:10:13.407Z,1043.42
2017-05-21T02:11:13.400Z,1043.4
2017-05-21T02:12:13.396Z,1043.4
2017-05-21T02:13:13.388Z,1043.41
2017-05-21T02:14:13.380Z,1043.42
2017-05-21T02:15:13.371Z,1043.38
2017-05-21T02:16:13.366Z,1043.38
2017-05-21T02:17:13.357Z,1043.37
2017-05-21T02:18:13.353Z,1043.38
2017-05-21T02:19:13.347Z,1043.37
2017-05-21T02:20:13.336Z,1043.35
2017-05-21T02:21:13.327Z,1043.37
2017-05-21T02:22:13.321Z,1043.36
2017-05-21T02:23:13.318Z,1043.32
2017-05-21T02:24:13.308Z,1043.36
2017-05-21T02:25:13.302Z,1043.35
2017-05-21T02:26:13.295Z,1043.36
2017-05-21T02:27:13.288Z,1043.37
2017-05-21T02:28:13.280Z,1043.35
2017-05-21T02:29:13.273Z,1043.37
2017-05-21T02:30:13.264Z,1043.36
2017-05-21T02:31:13.259Z,1043.34
2017-05-21T02:32:13.255Z,1043.36
2017-05-21T02:33:13.245Z,1043.38
2017-05-21T02:34:13.237Z,1043.38
2017-05-21T02:35:13.233Z,1043.39
2017-05-21T02:36:13.219Z,1043.37
2017-05-21T02:37:13.214Z,1043.39
2017-05-21T02:38:13.203Z,1043.39
2017-05-21T02:39:13.203Z,1043.41
2017-05-21T02:40:13.189Z,1043.46
2017-05-21T02:41:13.186Z,1043.47
2017-05-21T02:42:13.175Z,1043.43
2017-05-21T02:43:13.168Z,1043.45
2017-05-21T02:44:13.169Z,1043.44
2017-05-21T02:45:13.152Z,1043.45
2017-05-21T02:46:13.148Z,1043.47
2017-05-21T02:47:13.141Z,1043.48
2017-05-21T02:48:13.130Z,1043.49
2017-05-21T02:49:13.123Z,1043.53
2017-05-21T02:50:13.116Z,1043.57
2017-05-21T02:51:13.110Z,1043.58
2017-05-21T02:52:13.104Z,1043.62
2017-05-21T02:53:13.094Z,1043.6
2017-05-21T02:54:13.089Z,1043.62
2017-05-21T02:55:13.081Z,1043.63
2017-05-21T02:56:13.071Z,1043.61
2017-05-21T02:57:13.065Z,1043.61
2017-05-21T02:58:13.059Z,1043.6
2017-05-21T02:59:13.049Z,1043.61
2017-05-21T03:00:13.044Z,1043.6
2017-05-21T03:01:13.034Z,1043.66
2017-05-21T03:02:13.029Z,1043.67
2017-05-21T03:03:13.019Z,1043.69
2017-05-21T03:04:13.012Z,1043.69
2017-05-21T03:05:13.008Z,1043.75
2017-05-21T03:06:12.997Z,1043.75
2017-05-21T03:07:12.990Z,1043.79
2017-05-21T03:08:12.985Z,1043.79
2017-05-21T03:09:12.974Z,1043.81
2017-05-21T03:10:12.968Z,1043.78
2017-05-21T03:11:12.958Z,1043.79
2017-05-21T03:12:12.953Z,1043.78
2017-05-21T03:13:12.944Z,1043.8
2017-05-21T03:14:12.940Z,1043.8
2017-05-21T03:15:12.931Z,1043.8
2017-05-21T03:16:12.920Z,1043.78
2017-05-21T03:17:12.914Z,1043.79
2017-05-21T03:18:12.906Z,1043.77
2017-05-21T03:19:12.902Z,1043.76
2017-05-21T03:20:12.894Z,1043.71
2017-05-21T03:21:12.884Z,1043.7
2017-05-21T03:22:12.880Z,1043.7
2017-05-21T03:23:12.869Z,1043.72
2017-05-21T03:24:12.862Z,1043.67
2017-05-21T03:25:12.854Z,1043.63
2017-05-21T03:26:12.850Z,1043.63
2017-05-21T03:27:12.843Z,1043.62
2017-05-21T03:28:12.835Z,1043.57
2017-05-21T03:29:12.827Z,1043.54
2017-05-21T03:30:12.819Z,1043.53
2017-05-21T03:31:12.809Z,1043.5
2017-05-21T03:32:12.801Z,1043.46
2017-05-21T03:33:12.795Z,1043.46
2017-05-21T03:34:12.787Z,1043.46
2017-05-21T03:35:12.833Z,1043.43
2017-05-21T03:36:12.773Z,1043.4
2017-05-21T03:37:12.764Z,1043.33
2017-05-21T03:38:12.756Z,1043.31
2017-05-21T03:39:12.750Z,1043.2
2017-05-21T03:40:12.742Z,1043.1
2017-05-21T03:41:12.738Z,1042.95
2017-05-21T03:42:12.728Z,1042.87
2017-05-21T03:43:12.721Z,1042.71
2017-05-21T03:44:12.713Z,1042.56
2017-05-21T03:45:12.710Z,1042.44
2017-05-21T03:46:12.703Z,1042.31
2017-05-21T03:47:12.695Z,1042.16
2017-05-21T03:48:12.686Z,1042.01
2017-05-21T03:49:12.683Z,1041.9
2017-05-21T03:50:12.676Z,1041.76
2017-05-21T03:51:12.669Z,1041.62
2017-05-21T03:52:12.660Z,1041.48
2017-05-21T03:53:12.657Z,1041.35
2017-05-21T03:54:12.647Z,1041.28
2017-05-21T03:55:12.641Z,1041.17
2017-05-21T03:56:12.639Z,1041.02
2017-05-21T03:57:12.633Z,1040.93
2017-05-21T03:58:12.626Z,1040.81
2017-05-21T03:59:12.622Z,1040.73
2017-05-21T04:00:12.617Z,1040.62
2017-05-21T04:01:12.613Z,1040.51
2017-05-21T04:02:12.604Z,1040.38
2017-05-21T04:03:12.602Z,1040.22
2017-05-21T04:04:12.598Z,1040.11
2017-05-21T04:05:12.595Z,1040.05
2017-05-21T04:06:12.589Z,1039.93
2017-05-21T04:07:12.583Z,1039.82
2017-05-21T04:08:12.578Z,1039.68
2017-05-21T04:09:12.576Z,1039.58
2017-05-21T04:10:12.576Z,1039.44
2017-05-21T04:11:12.572Z,1039.37
2017-05-21T04:12:12.565Z,1039.3
2017-05-21T04:13:12.564Z,1039.18
2017-05-21T04:14:12.561Z,1039.07
2017-05-21T04:15:12.560Z,1039.03
2017-05-21T04:16:12.559Z,1038.94
2017-05-21T04:17:12.551Z,1038.86
2017-05-21T04:18:12.548Z,1038.75
2017-05-21T04:19:12.547Z,1038.66
2017-05-21T04:20:12.548Z,1038.55
2017-05-21T04:21:12.542Z,1038.47
2017-05-21T04:22:12.544Z,1038.4
2017-05-21T04:23:12.543Z,1038.37
2017-05-21T04:24:12.541Z,1038.27
2017-05-21T04:25:12.540Z,1038.2
2017-05-21T04:26:12.536Z,1038.05
2017-05-21T04:27:12.537Z,1037.99
2017-05-21T04:28:12.539Z,1037.93
2017-05-21T04:29:12.540Z,1037.88
2017-05-21T04:30:12.538Z,1037.78
2017-05-21T04:31:12.536Z,1037.75
2017-05-21T04:32:12.536Z,1037.69
2017-05-21T04:33:12.536Z,1037.6
2017-05-21T04:34:12.538Z,1037.57
2017-05-21T04:35:12.537Z,1037.5
2017-05-21T04:36:12.542Z,1037.43
2017-05-21T04:37:12.541Z,1037.32
2017-05-21T04:38:12.545Z,1037.24
2017-05-21T04:39:12.543Z,1037.13
2017-05-21T04:40:12.547Z,1037.12
2017-05-21T04:41:12.551Z,1037.03
2017-05-21T04:42:12.550Z,1036.98
2017-05-21T04:43:12.555Z,1036.91
2017-05-21T04:44:12.558Z,1036.77
2017-05-21T04:45:12.561Z,1036.69
2017-05-21T04:46:12.564Z,1036.59
2017-05-21T04:47:12.565Z,1036.6
2017-05-21T04:48:12.571Z,1036.51
2017-05-21T04:49:12.576Z,1036.46
2017-05-21T04:50:12.576Z,1036.4
2017-05-21T04:51:12.584Z,1036.34
2017-05-21T04:52:12.584Z,1036.3
2017-05-21T04:53:12.593Z,1036.19
2017-05-21T04:54:12.597Z,1036.13
2017-05-21T04:55:12.599Z,1036.06
2017-05-21T04:56:12.605Z,1036.05
2017-05-21T04:57:12.609Z,1036.02
2017-05-21T04:58:12.616Z,1035.94
2017-05-21T04:59:12.622Z,1035.89
2017-05-21T05:00:12.626Z,1035.87
2017-05-21T05:01:12.634Z,1035.77
2017-05-21T05:02:12.638Z,1035.73
2017-05-21T05:03:12.645Z,1035.7
2017-05-21T05:04:12.651Z,1035.68
2017-05-21T05:05:12.656Z,1035.64
2017-05-21T05:06:12.668Z,1035.66
2017-05-21T05:07:12.674Z,1035.67
2017-05-21T05:08:12.678Z,1035.6
2017-05-21T05:09:12.688Z,1035.57
2017-05-21T05:10:12.696Z,1035.48
2017-05-21T05:11:12.699Z,1035.38
2017-05-21T05:12:12.710Z,1035.34
2017-05-21T05:13:12.714Z,1035.31
2017-05-21T05:14:12.721Z,1035.35
2017-05-21T05:15:12.729Z,1035.36
2017-05-21T05:16:12.740Z,1035.31
2017-05-21T05:17:12.744Z,1035.33
2017-05-21T05:18:12.756Z,1035.39
2017-05-21T05:19:12.761Z,1035.39
2017-05-21T05:20:12.772Z,1035.36
2017-05-21T05:21:12.779Z,1035.32
2017-05-21T05:22:12.789Z,1035.33
2017-05-21T05:23:12.849Z,1035.24
2017-05-21T05:24:12.802Z,1035.27
2017-05-21T05:25:12.815Z,1035.28
2017-05-21T05:26:12.821Z,1035.3
2017-05-21T05:27:12.829Z,1035.32
2017-05-21T05:28:12.840Z,1035.28
2017-05-21T05:29:12.848Z,1035.26
2017-05-21T05:30:12.860Z,1035.3
2017-05-21T05:31:12.865Z,1035.3
2017-05-21T05:32:12.878Z,1035.33
2017-05-21T05:33:12.887Z,1035.38
2017-05-21T05:34:12.896Z,1035.38
2017-05-21T05:35:12.903Z,1035.29
2017-05-21T05:36:12.915Z,1035.16
2017-05-21T05:37:12.924Z,1035.09
2017-05-21T05:38:12.930Z,1035.07
2017-05-21T05:39:12.943Z,1035
2017-05-21T05:40:12.954Z,1035.07
2017-05-21T05:41:12.958Z,1035.04
2017-05-21T05:42:12.968Z,1035.09
2017-05-21T05:43:12.979Z,1035.08
2017-05-21T05:44:12.988Z,1035.09
2017-05-21T05:45:13.001Z,1035.06
2017-05-21T05:46:13.011Z,1034.97
2017-05-21T05:47:13.018Z,1034.92
2017-05-21T05:48:13.027Z,1034.98
2017-05-21T05:49:13.042Z,1035.05
2017-05-21T05:50:13.049Z,1035.08
2017-05-21T05:51:13.061Z,1035.09
2017-05-21T05:52:13.072Z,1035.02
2017-05-21T05:53:13.080Z,1034.99
2017-05-21T05:54:13.089Z,1035.03
2017-05-21T05:55:13.100Z,1034.96
2017-05-21T05:56:13.110Z,1034.89
2017-05-21T05:57:13.123Z,1034.79
2017-05-21T05:58:13.132Z,1034.75
2017-05-21T05:59:13.141Z,1034.57
2017-05-21T06:00:13.154Z,1034.51
2017-05-21T06:01:13.165Z,1034.61
2017-05-21T06:02:13.178Z,1034.65
2017-05-21T06:03:13.185Z,1034.59
2017-05-21T06:04:13.195Z,1034.67
2017-05-21T06:05:13.207Z,1034.81
2017-05-21T06:06:13.217Z,1034.78
2017-05-21T06:07:13.232Z,1034.75
2017-05-21T06:08:13.243Z,1034.77
2017-05-21T06:09:13.254Z,1034.83
2017-05-21T06:10:13.264Z,1034.77
2017-05-21T06:11:13.273Z,1034.55
2017-05-21T06:12:13.286Z,1034.35
2017-05-21T06:13:13.295Z,1034.25
2017-05-21T06:14:13.306Z,1034.14
2017-05-21T06:15:13.320Z,1033.95
2017-05-21T06:16:13.333Z,1033.89
2017-05-21T06:17:13.342Z,1033.85
2017-05-21T06:18:13.356Z,1033.85
2017-05-21T06:19:13.364Z,1033.73
2017-05-21T06:20:13.377Z,1033.59
2017-05-21T06:21:13.391Z,1033.51
2017-05-21T06:22:13.402Z,1033.45
2017-05-21T06:23:13.416Z,1033.39
2017-05-21T06:24:13.428Z,1033.34
2017-05-21T06:25:13.436Z,1033.28
2017-05-21T06:26:13.452Z,1033.25
2017-05-21T06:27:13.464Z,1033.22
2017-05-21T06:28:13.474Z,1033.21
2017-05-21T06:29:13.492Z,1033.31
2017-05-21T06:30:13.505Z,1033.3
2017-05-21T06:31:13.515Z,1033.32
2017-05-21T06:32:13.529Z,1033.28
2017-05-21T06:33:13.541Z,1033.24
2017-05-21T06:34:13.558Z,1033.19
2017-05-21T06:35:13.567Z,1033.01
2017-05-21T06:36:13.583Z,1032.84
2017-05-21T06:37:13.596Z,1032.74
2017-05-21T06:38:13.608Z,1032.61
2017-05-21T06:39:13.624Z,1032.53
2017-05-21T06:40:13.637Z,1032.53
2017-05-21T06:41:13.649Z,1032.47
2017-05-21T06:42:13.663Z,1032.39
2017-05-21T06:43:13.680Z,1032.33
2017-05-21T06:44:13.693Z,1032.29
2017-05-21T06:45:13.708Z,1032.22
2017-05-21T06:46:13.720Z,1032.24
2017-05-21T06:47:13.734Z,1032.19
2017-05-21T06:48:13.749Z,1032.23
2017-05-21T06:49:13.764Z,1032.31
2017-05-21T06:50:13.778Z,1032.32
2017-05-21T06:51:13.793Z,1032.44
2017-05-21T06:52:13.812Z,1032.38
2017-05-21T06:53:13.827Z,1032.34
2017-05-21T06:54:13.839Z,1032.27
2017-05-21T06:55:13.854Z,1032.34
2017-05-21T06:56:13.870Z,1032.37
2017-05-21T06:57:13.888Z,1032.54
2017-05-21T06:58:13.900Z,1032.66
2017-05-21T06:59:13.918Z,1032.88
2017-05-21T07:00:13.931Z,1033.01
2017-05-21T07:01:13.946Z,1033.18
2017-05-21T07:02:13.965Z,1033.29
2017-05-21T07:03:13.977Z,1033.32
2017-05-21T07:04:13.992Z,1033.33
2017-05-21T07:05:14.007Z,1033.41
2017-05-21T07:06:14.023Z,1033.34
2017-05-21T07:07:14.041Z,1033.36
2017-05-21T07:08:14.056Z,1033.45
2017-05-21T07:09:14.068Z,1033.38
2017-05-21T07:10:14.086Z,1033.36
2017-05-21T07:11:14.099Z,1033.26
2017-05-21T07:12:14.115Z,1033.22
2017-05-21T07:13:14.133Z,1033.32
2017-05-21T07:14:14.144Z,1033.45
2017-05-21T07:15:14.162Z,1033.41
2017-05-21T07:16:14.176Z,1033.38
2017-05-21T07:17:14.190Z,1033.41
2017-05-21T07:18:14.207Z,1033.29
2017-05-21T07:19:14.220Z,1033.39
2017-05-21T07:20:14.236Z,1033.34
2017-05-21T07:21:14.253Z,1033.34
2017-05-21T07:22:14.269Z,1033.39
2017-05-21T07:23:14.280Z,1033.4
2017-05-21T07:24:14.295Z,1033.31
2017-05-21T07:25:14.307Z,1033.27
2017-05-21T07:26:14.325Z,1033.24
2017-05-21T07:27:14.340Z,1033.18
2017-05-21T07:28:14.356Z,1033.24
2017-05-21T07:29:14.371Z,1033.25
2017-05-21T07:30:14.386Z,1033.32
2017-05-21T07:31:14.401Z,1033.38
2017-05-21T07:32:14.415Z,1033.27
2017-05-21T07:33:14.427Z,1033.38
2017-05-21T07:34:14.446Z,1033.37
2017-05-21T07:35:14.460Z,1033.37
2017-05-21T07:36:14.473Z,1033.25
2017-05-21T07:37:14.486Z,1033.1
2017-05-21T07:38:14.501Z,1033.02
2017-05-21T07:39:14.519Z,1032.99
2017-05-21T07:40:14.534Z,1032.97
2017-05-21T07:41:14.550Z,1032.95
2017-05-21T07:42:14.561Z,1032.83
2017-05-21T07:43:14.578Z,1032.81
2017-05-21T07:44:14.592Z,1032.84
2017-05-21T07:45:14.607Z,1032.8
2017-05-21T07:46:14.622Z,1032.71
2017-05-21T07:47:14.636Z,1032.75
2017-05-21T07:48:14.656Z,1032.73
2017-05-21T07:49:14.671Z,1032.79
2017-05-21T07:50:14.686Z,1033.05
2017-05-21T07:51:14.701Z,1033.23
2017-05-21T07:52:14.715Z,1033.77
2017-05-21T07:53:14.731Z,1034.67
2017-05-21T07:54:14.746Z,1034.48
2017-05-21T07:55:14.764Z,1034.55
2017-05-21T07:56:14.777Z,1034.66
2017-05-21T07:57:14.795Z,1034.68
2017-05-21T07:58:14.807Z,1034.69
2017-05-21T07:59:14.822Z,1034.65
2017-05-21T08:00:14.837Z,1034.51
2017-05-21T08:01:14.852Z,1034.21
2017-05-21T08:02:14.872Z,1034.1
2017-05-21T08:03:14.885Z,1033.86
2017-05-21T08:04:14.901Z,1033.71
2017-05-21T08:05:14.913Z,1033.51
2017-05-21T08:06:14.939Z,1033.25
2017-05-21T08:07:14.942Z,1033.24
2017-05-21T08:08:14.958Z,1032.96
2017-05-21T08:09:14.980Z,1033.08
2017-05-21T08:10:14.989Z,1032.95
2017-05-21T08:11:15.004Z,1032.8
2017-05-21T08:12:15.019Z,1032.64
2017-05-21T08:13:15.037Z,1032.62
2017-05-21T08:14:15.048Z,1032.61
2017-05-21T08:15:15.066Z,1032.81
2017-05-21T08:16:15.083Z,1033.33
2017-05-21T08:17:15.097Z,1033.88
2017-05-21T08:18:15.110Z,1034.33
2017-05-21T08:19:15.128Z,1034.58
2017-05-21T08:20:15.142Z,1034.73
2017-05-21T08:21:15.153Z,1034.81
2017-05-21T08:22:15.166Z,1034.77
2017-05-21T08:23:15.181Z,1034.7
2017-05-21T08:24:15.197Z,1034.61
2017-05-21T08:25:15.207Z,1034.45
2017-05-21T08:26:15.224Z,1034.36
2017-05-21T08:27:15.236Z,1034.42
2017-05-21T08:28:15.250Z,1034.51
2017-05-21T08:29:15.259Z,1034.71
2017-05-21T08:30:15.272Z,1034.67
2017-05-21T08:31:15.285Z,1034.53
2017-05-21T08:32:15.300Z,1034.42
2017-05-21T08:33:15.312Z,1034.42
2017-05-21T08:34:15.329Z,1034.61
2017-05-21T08:35:15.341Z,1034.86
2017-05-21T08:36:15.350Z,1035.31
2017-05-21T08:37:15.366Z,1035.82
2017-05-21T08:38:15.378Z,1036.27
2017-05-21T08:39:15.390Z,1036.64
2017-05-21T08:40:15.400Z,1036.83
2017-05-21T08:41:15.411Z,1036.88
2017-05-21T08:42:15.425Z,1036.84
2017-05-21T08:43:15.438Z,1036.57
2017-05-21T08:44:15.445Z,1036.35
2017-05-21T08:45:15.459Z,1036.59
2017-05-21T08:46:15.468Z,1037.12
2017-05-21T08:47:15.481Z,1037.63
2017-05-21T08:48:15.492Z,1038.05
2017-05-21T08:49:15.499Z,1038.29
2017-05-21T08:50:15.510Z,1038.66
2017-05-21T08:51:15.523Z,1038.89
2017-05-21T08:52:15.530Z,1039.26
2017-05-21T08:53:15.540Z,1039.45
2017-05-21T08:54:15.553Z,1039.88
2017-05-21T08:55:15.558Z,1040.19
2017-05-21T08:56:15.573Z,1040.33
2017-05-21T08:57:15.576Z,1040.65
2017-05-21T08:58:15.587Z,1040.96
2017-05-21T08:59:15.595Z,1041.1
2017-05-21T09:00:15.602Z,1041.11
2017-05-21T09:01:15.607Z,1041.33
2017-05-21T09:02:15.614Z,1041.52
2017-05-21T09:03:15.619Z,1041.57
2017-05-21T09:04:15.626Z,1041.52
2017-05-21T09:05:15.635Z,1041.55
2017-05-21T09:06:15.636Z,1041.5
2017-05-21T09:07:15.645Z,1041.58
2017-05-21T09:08:15.648Z,1041.57
2017-05-21T09:09:15.654Z,1041.59
2017-05-21T09:10:15.659Z,1041.55
2017-05-21T09:11:15.660Z,1041.7
2017-05-21T09:12:15.664Z,1041.72
2017-05-21T09:13:15.667Z,1041.81
2017-05-21T09:14:15.675Z,1041.8
2017-05-21T09:15:15.676Z,1041.87
2017-05-21T09:16:15.683Z,1041.9
2017-05-21T09:17:15.685Z,1041.94
2017-05-21T09:18:15.684Z,1041.97
2017-05-21T09:19:15.688Z,1041.98
2017-05-21T09:20:15.690Z,1041.99
2017-05-21T09:21:15.695Z,1042.07
2017-05-21T09:22:15.695Z,1042.14
2017-05-21T09:23:15.698Z,1042.09
2017-05-21T09:24:15.703Z,1042.07
2017-05-21T09:25:15.705Z,1042.09
2017-05-21T09:26:15.704Z,1042.08
2017-05-21T09:27:15.709Z,1042.02
2017-05-21T09:28:15.707Z,1042.04
2017-05-21T09:29:15.712Z,1042.01
2017-05-21T09:30:15.714Z,1042.15
2017-05-21T09:31:15.716Z,1042.05
2017-05-21T09:32:15.714Z,1042.08
2017-05-21T09:33:15.719Z,1042.17
2017-05-21T09:34:15.718Z,1042.15
2017-05-21T09:35:15.721Z,1042.12
2017-05-21T09:36:15.720Z,1042.08
2017-05-21T09:37:15.723Z,1042.06
2017-05-21T09:38:15.726Z,1042.13
2017-05-21T09:39:15.725Z,1042.01
2017-05-21T09:40:15.727Z,1042.17
2017-05-21T09:41:15.727Z,1042.09
2017-05-21T09:42:15.727Z,1042.09
2017-05-21T09:43:15.729Z,1042.04
2017-05-21T09:44:15.730Z,1042.09
2017-05-21T09:45:15.735Z,1042.09
2017-05-21T09:46:15.731Z,1042.09
2017-05-21T09:47:15.733Z,1042.09
2017-05-21T09:48:15.736Z,1042
2017-05-21T09:49:15.736Z,1042.02
2017-05-21T09:50:15.735Z,1041.97
2017-05-21T09:51:15.739Z,1042.05
2017-05-21T09:52:15.737Z,1041.98
2017-05-21T09:53:15.740Z,1041.94
2017-05-21T09:54:15.738Z,1041.99
2017-05-21T09:55:15.743Z,1041.9
2017-05-21T09:56:15.744Z,1041.87
2017-05-21T09:57:15.744Z,1041.74
2017-05-21T09:58:15.744Z,1041.82
2017-05-21T09:59:15.742Z,1041.68
2017-05-21T10:00:15.746Z,1041.75
2017-05-21T10:01:15.744Z,1041.64
2017-05-21T10:02:15.748Z,1041.65
2017-05-21T10:03:15.745Z,1041.59
2017-05-21T10:04:15.746Z,1041.6
2017-05-21T10:05:15.746Z,1041.55
2017-05-21T10:06:15.748Z,1041.6
2017-05-21T10:07:15.749Z,1041.53
2017-05-21T10:08:15.749Z,1041.5
2017-05-21T10:09:15.752Z,1041.43
2017-05-21T10:10:15.751Z,1041.38
2017-05-21T10:11:15.752Z,1041.33
2017-05-21T10:12:15.753Z,1041.29
2017-05-21T10:13:15.758Z,1041.32
2017-05-21T10:14:15.756Z,1041.29
2017-05-21T10:15:15.756Z,1041.3
2017-05-21T10:16:15.758Z,1041.4
2017-05-21T10:17:15.759Z,1041.38
2017-05-21T10:18:15.764Z,1041.47
2017-05-21T10:19:15.761Z,1041.59
2017-05-21T10:20:15.766Z,1041.44
2017-05-21T10:21:15.763Z,1041.55
2017-05-21T10:22:15.766Z,1041.61
2017-05-21T10:23:15.766Z,1041.57
2017-05-21T10:24:15.770Z,1041.69
2017-05-21T10:25:15.768Z,1041.69
2017-05-21T10:26:15.773Z,1041.71
2017-05-21T10:27:15.773Z,1041.74
2017-05-21T10:28:15.772Z,1041.74
2017-05-21T10:29:15.776Z,1041.76
2017-05-21T10:30:15.773Z,1041.75
2017-05-21T10:31:15.773Z,1041.71
2017-05-21T10:32:15.778Z,1041.66
2017-05-21T10:33:15.776Z,1041.75
2017-05-21T10:34:15.780Z,1041.67
2017-05-21T10:35:15.779Z,1041.66
2017-05-21T10:36:15.784Z,1041.69
2017-05-21T10:37:15.785Z,1041.76
2017-05-21T10:38:15.784Z,1041.59
2017-05-21T10:39:15.781Z,1041.59
2017-05-21T10:40:15.782Z,1041.62
2017-05-21T10:41:15.785Z,1041.58
2017-05-21T10:42:15.786Z,1041.56
2017-05-21T10:43:15.787Z,1041.42
2017-05-21T10:44:15.788Z,1041.42
2017-05-21T10:45:15.785Z,1041.44
2017-05-21T10:46:15.785Z,1041.4
2017-05-21T10:47:15.788Z,1041.32
2017-05-21T10:48:15.790Z,1041.23
2017-05-21T10:49:15.788Z,1041.25
2017-05-21T10:50:15.788Z,1041.18
2017-05-21T10:51:15.791Z,1041.25
2017-05-21T10:52:15.791Z,1041.29
2017-05-21T10:53:15.792Z,1041.19
2017-05-21T10:54:15.795Z,1041.16
2017-05-21T10:55:15.794Z,1041.19
2017-05-21T10:56:15.796Z,1041.15
2017-05-21T10:57:15.797Z,1041.14
2017-05-21T10:58:15.795Z,1041.17
2017-05-21T10:59:15.798Z,1041.15
2017-05-21T11:00:15.797Z,1040.99
2017-05-21T11:01:15.797Z,1040.9
2017-05-21T11:02:15.800Z,1040.71
2017-05-21T11:03:15.801Z,1040.5
2017-05-21T11:04:16.100Z,1040.36
2017-05-21T11:05:15.804Z,1040.17
2017-05-21T11:06:15.806Z,1040.03
2017-05-21T11:07:15.802Z,1039.9
2017-05-21T11:08:15.807Z,1039.77
2017-05-21T11:09:15.808Z,1039.85
2017-05-21T11:10:15.805Z,1039.88
2017-05-21T11:11:15.807Z,1040
2017-05-21T11:12:15.808Z,1040.12
2017-05-21T11:13:15.811Z,1040.15
2017-05-21T11:14:15.816Z,1040.21
2017-05-21T11:15:15.814Z,1040.16
2017-05-21T11:16:15.819Z,1040.24
2017-05-21T11:17:15.817Z,1040.22
2017-05-21T11:18:15.822Z,1040.28
2017-05-21T11:19:15.824Z,1040.31
2017-05-21T11:20:15.826Z,1040.3
2017-05-21T11:21:15.825Z,1040.35
2017-05-21T11:22:15.826Z,1040.32
2017-05-21T11:23:15.828Z,1040.38
2017-05-21T11:24:15.834Z,1040.4
2017-05-21T11:25:15.830Z,1040.51
2017-05-21T11:26:15.835Z,1040.52
2017-05-21T11:27:15.836Z,1040.48
2017-05-21T11:28:15.839Z,1040.56
2017-05-21T11:29:15.842Z,1040.55
2017-05-21T11:30:15.843Z,1040.65
2017-05-21T11:31:15.846Z,1040.69
2017-05-21T11:32:15.846Z,1040.61
2017-05-21T11:33:15.848Z,1040.54
2017-05-21T11:34:15.847Z,1040.55
2017-05-21T11:35:15.848Z,1040.5
2017-05-21T11:36:15.851Z,1040.32
2017-05-21T11:37:15.854Z,1040.27
2017-05-21T11:38:15.853Z,1040.18
2017-05-21T11:39:15.854Z,1040.16
2017-05-21T11:40:15.855Z,1040.11
2017-05-21T11:41:15.857Z,1040.04
2017-05-21T11:42:15.859Z,1039.94
2017-05-21T11:43:15.862Z,1039.8
2017-05-21T11:44:15.862Z,1039.7
2017-05-21T11:45:15.867Z,1039.58
2017-05-21T11:46:15.865Z,1039.36
2017-05-21T11:47:15.871Z,1039.21
2017-05-21T11:48:15.868Z,1039.09
2017-05-21T11:49:15.875Z,1039
2017-05-21T11:50:15.872Z,1039.03
2017-05-21T11:51:15.874Z,1039.06
2017-05-21T11:52:15.877Z,1039.24
2017-05-21T11:53:15.883Z,1039.3
2017-05-21T11:54:15.881Z,1039.5
2017-05-21T11:55:15.887Z,1039.51
2017-05-21T11:56:15.887Z,1039.56
2017-05-21T11:57:15.892Z,1039.6
2017-05-21T11:58:15.891Z,1039.52
2017-05-21T11:59:15.894Z,1039.38
2017-05-21T12:00:15.896Z,1039.28
2017-05-21T12:01:15.900Z,1039.16
2017-05-21T12:02:15.963Z,1038.97
2017-05-21T12:03:15.906Z,1038.91
2017-05-21T12:04:15.908Z,1038.72
2017-05-21T12:05:15.908Z,1038.72
2017-05-21T12:06:15.915Z,1038.75
2017-05-21T12:07:15.914Z,1038.72
2017-05-21T12:08:15.919Z,1038.7